Hutchinson, Kansas
Current Conditions -  °F | °C
As of 3:52 PM on Saturday 25 Oct 2014 (Local Time) from KHUT Reporting Station
Clear Clear  
Wind Chill: 32°   Ceiling: Unl
Heat Index: 32°   Visibility: 10mi
Dew Point: 14°   Wind: 13mph
Humidity: 33%   Direction: 180°S
Pressure: 30.01"   Gusts: NA
Location:  38.06°N, 97.93°W
Report Text: KHUT 252052Z 18011KT 10SM CLR 32/14 A3001 RMK AO2 SLP141 T03220139 56016
Loading
Personal Weather Stations






























Interactive Weather Map
Tropical Storm Tracking
New forecast layout! Learn more

10-Day Weather Forecast

Advertisements
Track Severe Weather on mobile